Terminal Aerodrome Forecast
Issued by NWS Grand Forks, ND

Home | Current Version | Previous Version | Text Only | Print | Product List | Glossary On
Versions: 1 2 3 4 5 6 7 8 9 10 11 12 13 14 15 16 17 18
289
FTUS43 KFGF 221720
TAFFAR
TAF
KFAR 221720Z 2218/2318 27006KT 5SM BR OVC010
      TEMPO 2218/2221 2SM BR OVC005
     FM230000 27006KT P6SM OVC008
     FM231400 24005KT P6SM BKN008=

USA.gov is the U.S. government's official web portal to all federal, state and local government web resources and services.